sensor_id;sensor_type;location;lat;lon;timestamp;temperature;humidity
19966;DHT22;10144;50.874;4.762;2023-07-13T00:01:19;17.00;99.90
19966;DHT22;10144;50.874;4.762;2023-07-13T00:03:49;16.90;99.90
19966;DHT22;10144;50.874;4.762;2023-07-13T00:06:14;16.80;99.90
19966;DHT22;10144;50.874;4.762;2023-07-13T00:08:44;16.70;99.90
19966;DHT22;10144;50.874;4.762;2023-07-13T00:11:11;16.70;99.90
19966;DHT22;10144;50.874;4.762;2023-07-13T00:13:43;16.70;99.90
19966;DHT22;10144;50.874;4.762;2023-07-13T00:16:11;16.70;99.90
19966;DHT22;10144;50.874;4.762;2023-07-13T00:18:40;16.70;99.90
19966;DHT22;10144;50.874;4.762;2023-07-13T00:21:06;16.70;99.90
19966;DHT22;10144;50.874;4.762;2023-07-13T00:23:36;16.70;99.90
19966;DHT22;10144;50.874;4.762;2023-07-13T00:26:10;16.80;99.90
19966;DHT22;10144;50.874;4.762;2023-07-13T00:28:37;16.70;99.90
19966;DHT22;10144;50.874;4.762;2023-07-13T00:31:10;16.70;99.90
19966;DHT22;10144;50.874;4.762;2023-07-13T00:33:36;16.50;99.90
19966;DHT22;10144;50.874;4.762;2023-07-13T00:36:03;16.40;99.90
19966;DHT22;10144;50.874;4.762;2023-07-13T00:38:30;16.40;99.90
19966;DHT22;10144;50.874;4.762;2023-07-13T00:40:55;16.40;99.90
19966;DHT22;10144;50.874;4.762;2023-07-13T00:43:27;16.30;99.90
19966;DHT22;10144;50.874;4.762;2023-07-13T00:48:20;16.40;99.90
19966;DHT22;10144;50.874;4.762;2023-07-13T00:50:49;16.50;99.90
19966;DHT22;10144;50.874;4.762;2023-07-13T00:53:25;16.50;99.90
19966;DHT22;10144;50.874;4.762;2023-07-13T00:55:53;16.30;99.90
19966;DHT22;10144;50.874;4.762;2023-07-13T00:58:19;16.40;99.90
19966;DHT22;10144;50.874;4.762;2023-07-13T01:00:48;16.30;99.90
19966;DHT22;10144;50.874;4.762;2023-07-13T01:03:15;16.20;99.90
19966;DHT22;10144;50.874;4.762;2023-07-13T01:05:40;16.20;99.90
19966;DHT22;10144;50.874;4.762;2023-07-13T01:08:07;16.30;99.90
19966;DHT22;10144;50.874;4.762;2023-07-13T01:10:33;16.50;99.90
19966;DHT22;10144;50.874;4.762;2023-07-13T01:13:09;16.40;99.90
19966;DHT22;10144;50.874;4.762;2023-07-13T01:15:37;16.40;99.90
19966;DHT22;10144;50.874;4.762;2023-07-13T01:18:05;16.20;99.90
19966;DHT22;10144;50.874;4.762;2023-07-13T01:20:34;16.10;99.90
19966;DHT22;10144;50.874;4.762;2023-07-13T01:23:06;16.20;99.90
19966;DHT22;10144;50.874;4.762;2023-07-13T01:25:38;16.20;99.90
19966;DHT22;10144;50.874;4.762;2023-07-13T01:28:08;16.20;99.90
19966;DHT22;10144;50.874;4.762;2023-07-13T01:30:36;16.10;99.90
19966;DHT22;10144;50.874;4.762;2023-07-13T01:33:07;16.20;99.90
19966;DHT22;10144;50.874;4.762;2023-07-13T01:35:35;16.20;99.90
19966;DHT22;10144;50.874;4.762;2023-07-13T01:38:02;16.10;99.90
19966;DHT22;10144;50.874;4.762;2023-07-13T01:40:29;16.00;99.90
19966;DHT22;10144;50.874;4.762;2023-07-13T01:42:55;16.00;99.90
19966;DHT22;10144;50.874;4.762;2023-07-13T01:45:20;16.10;99.90
19966;DHT22;10144;50.874;4.762;2023-07-13T01:47:46;16.10;99.90
19966;DHT22;10144;50.874;4.762;2023-07-13T01:50:12;16.00;99.90
19966;DHT22;10144;50.874;4.762;2023-07-13T01:52:41;16.00;99.90
19966;DHT22;10144;50.874;4.762;2023-07-13T01:55:12;16.00;99.90
19966;DHT22;10144;50.874;4.762;2023-07-13T01:57:40;16.10;99.90
19966;DHT22;10144;50.874;4.762;2023-07-13T02:00:09;16.10;99.90
19966;DHT22;10144;50.874;4.762;2023-07-13T02:02:38;16.00;99.90
19966;DHT22;10144;50.874;4.762;2023-07-13T02:05:04;15.90;99.90
19966;DHT22;10144;50.874;4.762;2023-07-13T02:07:30;15.80;99.90
19966;DHT22;10144;50.874;4.762;2023-07-13T02:09:57;15.80;99.90
19966;DHT22;10144;50.874;4.762;2023-07-13T02:12:24;15.80;99.90
19966;DHT22;10144;50.874;4.762;2023-07-13T02:14:50;15.90;99.90
19966;DHT22;10144;50.874;4.762;2023-07-13T02:17:15;15.70;99.90
19966;DHT22;10144;50.874;4.762;2023-07-13T02:19:41;15.70;99.90
19966;DHT22;10144;50.874;4.762;2023-07-13T02:22:07;15.70;99.90
19966;DHT22;10144;50.874;4.762;2023-07-13T02:24:33;15.80;99.90
19966;DHT22;10144;50.874;4.762;2023-07-13T02:27:00;15.80;99.90
19966;DHT22;10144;50.874;4.762;2023-07-13T02:29:26;15.80;99.90
19966;DHT22;10144;50.874;4.762;2023-07-13T02:31:52;15.90;99.90
19966;DHT22;10144;50.874;4.762;2023-07-13T02:34:17;15.90;99.90
19966;DHT22;10144;50.874;4.762;2023-07-13T02:36:43;15.90;99.90
19966;DHT22;10144;50.874;4.762;2023-07-13T02:39:14;15.80;99.90
19966;DHT22;10144;50.874;4.762;2023-07-13T02:41:41;15.80;99.90
19966;DHT22;10144;50.874;4.762;2023-07-13T02:44:07;15.70;99.90
19966;DHT22;10144;50.874;4.762;2023-07-13T02:46:35;15.70;99.90
19966;DHT22;10144;50.874;4.762;2023-07-13T02:49:03;15.70;99.90
19966;DHT22;10144;50.874;4.762;2023-07-13T02:51:29;15.60;99.90
19966;DHT22;10144;50.874;4.762;2023-07-13T02:53:55;15.60;99.90
19966;DHT22;10144;50.874;4.762;2023-07-13T02:56:25;15.70;99.90
19966;DHT22;10144;50.874;4.762;2023-07-13T02:58:53;15.70;99.90
19966;DHT22;10144;50.874;4.762;2023-07-13T03:01:20;15.70;99.90
19966;DHT22;10144;50.874;4.762;2023-07-13T03:03:48;15.70;99.90
19966;DHT22;10144;50.874;4.762;2023-07-13T03:06:28;15.70;99.90
19966;DHT22;10144;50.874;4.762;2023-07-13T03:08:56;15.70;99.90
19966;DHT22;10144;50.874;4.762;2023-07-13T03:11:21;15.80;99.90
19966;DHT22;10144;50.874;4.762;2023-07-13T03:13:48;15.70;99.90
19966;DHT22;10144;50.874;4.762;2023-07-13T03:16:16;15.60;99.90
19966;DHT22;10144;50.874;4.762;2023-07-13T03:18:44;15.60;99.90
19966;DHT22;10144;50.874;4.762;2023-07-13T03:21:10;15.60;99.90
19966;DHT22;10144;50.874;4.762;2023-07-13T03:23:36;15.50;99.90
19966;DHT22;10144;50.874;4.762;2023-07-13T03:26:15;15.40;99.90
19966;DHT22;10144;50.874;4.762;2023-07-13T03:28:42;15.40;99.90
19966;DHT22;10144;50.874;4.762;2023-07-13T03:31:14;15.40;99.90
19966;DHT22;10144;50.874;4.762;2023-07-13T03:33:42;15.40;99.90
19966;DHT22;10144;50.874;4.762;2023-07-13T03:36:13;15.50;99.90
19966;DHT22;10144;50.874;4.762;2023-07-13T03:38:52;15.50;99.90
19966;DHT22;10144;50.874;4.762;2023-07-13T03:41:21;15.50;99.90
19966;DHT22;10144;50.874;4.762;2023-07-13T03:43:50;15.50;99.90
19966;DHT22;10144;50.874;4.762;2023-07-13T03:46:17;15.60;99.90
19966;DHT22;10144;50.874;4.762;2023-07-13T03:48:44;15.70;99.90
19966;DHT22;10144;50.874;4.762;2023-07-13T03:51:11;15.60;99.90
19966;DHT22;10144;50.874;4.762;2023-07-13T03:53:41;15.50;99.90
19966;DHT22;10144;50.874;4.762;2023-07-13T03:56:08;15.50;99.90
19966;DHT22;10144;50.874;4.762;2023-07-13T03:58:38;15.60;99.90
19966;DHT22;10144;50.874;4.762;2023-07-13T04:01:07;15.50;99.90
19966;DHT22;10144;50.874;4.762;2023-07-13T04:03:36;15.40;99.90
19966;DHT22;10144;50.874;4.762;2023-07-13T04:06:10;15.50;99.90
19966;DHT22;10144;50.874;4.762;2023-07-13T04:08:40;15.60;99.90
19966;DHT22;10144;50.874;4.762;2023-07-13T04:11:06;15.70;99.90
19966;DHT22;10144;50.874;4.762;2023-07-13T04:13:32;15.80;99.90
19966;DHT22;10144;50.874;4.762;2023-07-13T04:16:00;15.80;99.90
19966;DHT22;10144;50.874;4.762;2023-07-13T04:18:30;15.70;99.90
19966;DHT22;10144;50.874;4.762;2023-07-13T04:20:57;15.70;99.90
19966;DHT22;10144;50.874;4.762;2023-07-13T04:23:23;15.80;99.90
19966;DHT22;10144;50.874;4.762;2023-07-13T04:25:52;15.80;99.90
19966;DHT22;10144;50.874;4.762;2023-07-13T04:28:24;15.80;99.90
19966;DHT22;10144;50.874;4.762;2023-07-13T04:30:51;15.80;99.90
19966;DHT22;10144;50.874;4.762;2023-07-13T04:33:17;15.80;99.90
19966;DHT22;10144;50.874;4.762;2023-07-13T04:35:43;15.90;99.90
19966;DHT22;10144;50.874;4.762;2023-07-13T04:38:09;16.00;99.90
19966;DHT22;10144;50.874;4.762;2023-07-13T04:40:37;16.00;99.90
19966;DHT22;10144;50.874;4.762;2023-07-13T04:43:03;16.00;99.90
19966;DHT22;10144;50.874;4.762;2023-07-13T04:45:28;16.00;99.90
19966;DHT22;10144;50.874;4.762;2023-07-13T04:47:54;16.00;99.90
19966;DHT22;10144;50.874;4.762;2023-07-13T04:50:20;16.00;99.90
19966;DHT22;10144;50.874;4.762;2023-07-13T04:52:50;16.00;99.90
19966;DHT22;10144;50.874;4.762;2023-07-13T04:55:17;16.00;99.90
19966;DHT22;10144;50.874;4.762;2023-07-13T04:57:43;16.00;99.90
19966;DHT22;10144;50.874;4.762;2023-07-13T05:00:09;16.10;99.90
19966;DHT22;10144;50.874;4.762;2023-07-13T05:02:38;16.10;99.90
19966;DHT22;10144;50.874;4.762;2023-07-13T05:05:04;16.20;99.90
19966;DHT22;10144;50.874;4.762;2023-07-13T05:07:32;16.20;99.90
19966;DHT22;10144;50.874;4.762;2023-07-13T05:10:01;16.20;99.90
19966;DHT22;10144;50.874;4.762;2023-07-13T05:12:29;16.30;99.90
19966;DHT22;10144;50.874;4.762;2023-07-13T05:14:55;16.40;99.90
19966;DHT22;10144;50.874;4.762;2023-07-13T05:17:20;16.60;99.90
19966;DHT22;10144;50.874;4.762;2023-07-13T05:19:47;16.60;99.90
19966;DHT22;10144;50.874;4.762;2023-07-13T05:22:14;16.70;99.90
19966;DHT22;10144;50.874;4.762;2023-07-13T05:24:39;16.80;99.90
19966;DHT22;10144;50.874;4.762;2023-07-13T05:27:05;16.70;99.90
19966;DHT22;10144;50.874;4.762;2023-07-13T05:29:31;16.80;99.90
19966;DHT22;10144;50.874;4.762;2023-07-13T05:31:56;16.80;99.90
19966;DHT22;10144;50.874;4.762;2023-07-13T05:34:22;16.80;99.90
19966;DHT22;10144;50.874;4.762;2023-07-13T05:36:48;16.90;99.90
19966;DHT22;10144;50.874;4.762;2023-07-13T05:39:14;17.00;99.90
19966;DHT22;10144;50.874;4.762;2023-07-13T05:41:40;17.10;99.90
19966;DHT22;10144;50.874;4.762;2023-07-13T05:44:06;17.20;99.90
19966;DHT22;10144;50.874;4.762;2023-07-13T05:46:31;17.40;99.90
19966;DHT22;10144;50.874;4.762;2023-07-13T05:48:57;17.50;99.90
19966;DHT22;10144;50.874;4.762;2023-07-13T05:51:23;17.60;99.90
19966;DHT22;10144;50.874;4.762;2023-07-13T05:53:48;17.80;99.90
19966;DHT22;10144;50.874;4.762;2023-07-13T05:56:14;17.90;99.90
19966;DHT22;10144;50.874;4.762;2023-07-13T05:58:39;17.90;99.90
19966;DHT22;10144;50.874;4.762;2023-07-13T06:01:11;17.80;99.90
19966;DHT22;10144;50.874;4.762;2023-07-13T06:03:41;18.00;99.90
19966;DHT22;10144;50.874;4.762;2023-07-13T06:06:08;18.00;99.90
19966;DHT22;10144;50.874;4.762;2023-07-13T06:08:37;18.10;99.90
19966;DHT22;10144;50.874;4.762;2023-07-13T06:11:18;18.10;99.90
19966;DHT22;10144;50.874;4.762;2023-07-13T06:13:44;18.10;99.90
19966;DHT22;10144;50.874;4.762;2023-07-13T06:16:14;18.10;99.90
19966;DHT22;10144;50.874;4.762;2023-07-13T06:18:43;18.10;99.90
19966;DHT22;10144;50.874;4.762;2023-07-13T06:21:13;18.00;99.90
19966;DHT22;10144;50.874;4.762;2023-07-13T06:23:42;18.10;99.90
19966;DHT22;10144;50.874;4.762;2023-07-13T06:26:08;18.00;99.90
19966;DHT22;10144;50.874;4.762;2023-07-13T06:28:35;17.90;99.90
19966;DHT22;10144;50.874;4.762;2023-07-13T06:31:01;18.10;99.90
19966;DHT22;10144;50.874;4.762;2023-07-13T06:33:27;18.10;99.90
19966;DHT22;10144;50.874;4.762;2023-07-13T06:35:54;18.20;99.90
19966;DHT22;10144;50.874;4.762;2023-07-13T06:38:20;18.20;99.90
19966;DHT22;10144;50.874;4.762;2023-07-13T06:40:46;18.30;99.90
19966;DHT22;10144;50.874;4.762;2023-07-13T06:43:14;18.30;99.90
19966;DHT22;10144;50.874;4.762;2023-07-13T06:45:45;18.40;99.90
19966;DHT22;10144;50.874;4.762;2023-07-13T06:48:13;18.40;99.90
19966;DHT22;10144;50.874;4.762;2023-07-13T06:50:38;18.50;99.90
19966;DHT22;10144;50.874;4.762;2023-07-13T06:53:05;18.40;99.90
19966;DHT22;10144;50.874;4.762;2023-07-13T06:55:31;18.60;99.90
19966;DHT22;10144;50.874;4.762;2023-07-13T06:57:57;18.60;99.90
19966;DHT22;10144;50.874;4.762;2023-07-13T07:00:23;18.70;99.90
19966;DHT22;10144;50.874;4.762;2023-07-13T07:02:50;18.90;99.90
19966;DHT22;10144;50.874;4.762;2023-07-13T07:05:18;19.00;99.90
19966;DHT22;10144;50.874;4.762;2023-07-13T07:07:54;19.30;99.90
19966;DHT22;10144;50.874;4.762;2023-07-13T07:10:20;19.60;99.90
19966;DHT22;10144;50.874;4.762;2023-07-13T07:12:47;19.70;99.90
19966;DHT22;10144;50.874;4.762;2023-07-13T07:15:13;19.70;99.90
19966;DHT22;10144;50.874;4.762;2023-07-13T07:17:39;20.10;99.90
19966;DHT22;10144;50.874;4.762;2023-07-13T07:20:08;20.40;99.90
19966;DHT22;10144;50.874;4.762;2023-07-13T07:22:38;20.90;99.90
19966;DHT22;10144;50.874;4.762;2023-07-13T07:25:06;21.20;99.90
19966;DHT22;10144;50.874;4.762;2023-07-13T07:27:38;21.60;99.90
19966;DHT22;10144;50.874;4.762;2023-07-13T07:30:04;22.10;99.90
19966;DHT22;10144;50.874;4.762;2023-07-13T07:32:32;21.80;99.90
19966;DHT22;10144;50.874;4.762;2023-07-13T07:35:00;21.70;99.90
19966;DHT22;10144;50.874;4.762;2023-07-13T07:37:25;21.60;99.90
19966;DHT22;10144;50.874;4.762;2023-07-13T07:39:51;21.90;99.90
19966;DHT22;10144;50.874;4.762;2023-07-13T07:42:17;22.10;99.90
19966;DHT22;10144;50.874;4.762;2023-07-13T07:44:42;22.20;99.90
19966;DHT22;10144;50.874;4.762;2023-07-13T07:47:09;22.30;99.90
19966;DHT22;10144;50.874;4.762;2023-07-13T07:49:36;22.60;99.90
19966;DHT22;10144;50.874;4.762;2023-07-13T07:52:01;22.70;99.90
19966;DHT22;10144;50.874;4.762;2023-07-13T07:54:27;22.70;99.90
19966;DHT22;10144;50.874;4.762;2023-07-13T07:56:53;23.20;99.90
19966;DHT22;10144;50.874;4.762;2023-07-13T07:59:20;23.20;99.90
19966;DHT22;10144;50.874;4.762;2023-07-13T08:01:45;23.30;99.90
19966;DHT22;10144;50.874;4.762;2023-07-13T08:04:13;23.20;99.90
19966;DHT22;10144;50.874;4.762;2023-07-13T08:06:38;23.10;99.90
19966;DHT22;10144;50.874;4.762;2023-07-13T08:09:05;22.90;99.90
19966;DHT22;10144;50.874;4.762;2023-07-13T08:11:31;22.90;99.90
19966;DHT22;10144;50.874;4.762;2023-07-13T08:13:57;23.10;99.90
19966;DHT22;10144;50.874;4.762;2023-07-13T08:16:23;23.40;99.90
19966;DHT22;10144;50.874;4.762;2023-07-13T08:18:49;23.80;99.90
19966;DHT22;10144;50.874;4.762;2023-07-13T08:21:14;24.20;99.90
19966;DHT22;10144;50.874;4.762;2023-07-13T08:23:40;24.60;99.90
19966;DHT22;10144;50.874;4.762;2023-07-13T08:26:06;24.90;99.90
19966;DHT22;10144;50.874;4.762;2023-07-13T08:28:33;25.20;99.90
19966;DHT22;10144;50.874;4.762;2023-07-13T08:31:07;25.90;99.90
19966;DHT22;10144;50.874;4.762;2023-07-13T08:33:35;26.30;99.90
19966;DHT22;10144;50.874;4.762;2023-07-13T08:36:01;26.80;99.90
19966;DHT22;10144;50.874;4.762;2023-07-13T08:38:28;27.30;99.90
19966;DHT22;10144;50.874;4.762;2023-07-13T08:40:57;27.30;99.90
19966;DHT22;10144;50.874;4.762;2023-07-13T08:43:28;26.70;99.90
19966;DHT22;10144;50.874;4.762;2023-07-13T08:49:17;26.40;99.90
19966;DHT22;10144;50.874;4.762;2023-07-13T08:51:55;26.70;99.90
19966;DHT22;10144;50.874;4.762;2023-07-13T08:54:42;26.80;99.90
19966;DHT22;10144;50.874;4.762;2023-07-13T08:57:15;26.70;99.90
19966;DHT22;10144;50.874;4.762;2023-07-13T08:59:41;26.50;99.90
19966;DHT22;10144;50.874;4.762;2023-07-13T09:05:29;25.90;99.90
19966;DHT22;10144;50.874;4.762;2023-07-13T09:16:48;26.90;99.90
19966;DHT22;10144;50.874;4.762;2023-07-13T09:19:21;26.60;99.90
19966;DHT22;10144;50.874;4.762;2023-07-13T09:21:52;26.40;99.90
19966;DHT22;10144;50.874;4.762;2023-07-13T09:27:14;26.00;99.90
19966;DHT22;10144;50.874;4.762;2023-07-13T09:29:49;26.60;99.90
19966;DHT22;10144;50.874;4.762;2023-07-13T09:32:18;27.60;99.90
19966;DHT22;10144;50.874;4.762;2023-07-13T09:34:51;28.00;99.90
19966;DHT22;10144;50.874;4.762;2023-07-13T09:37:19;28.30;99.90
19966;DHT22;10144;50.874;4.762;2023-07-13T09:39:49;28.90;99.90
19966;DHT22;10144;50.874;4.762;2023-07-13T09:42:16;29.80;99.90
19966;DHT22;10144;50.874;4.762;2023-07-13T09:44:54;30.40;99.90
19966;DHT22;10144;50.874;4.762;2023-07-13T09:47:26;29.90;99.90
19966;DHT22;10144;50.874;4.762;2023-07-13T09:52:24;30.20;99.90
19966;DHT22;10144;50.874;4.762;2023-07-13T09:54:53;30.30;99.90
19966;DHT22;10144;50.874;4.762;2023-07-13T09:57:27;29.50;99.90
19966;DHT22;10144;50.874;4.762;2023-07-13T09:59:54;29.30;99.90
19966;DHT22;10144;50.874;4.762;2023-07-13T10:02:31;29.10;99.90
19966;DHT22;10144;50.874;4.762;2023-07-13T10:05:07;29.20;99.90
19966;DHT22;10144;50.874;4.762;2023-07-13T10:07:39;28.80;99.90
19966;DHT22;10144;50.874;4.762;2023-07-13T10:10:15;28.70;99.90
19966;DHT22;10144;50.874;4.762;2023-07-13T10:12:41;28.80;99.90
19966;DHT22;10144;50.874;4.762;2023-07-13T10:15:15;28.90;99.90
19966;DHT22;10144;50.874;4.762;2023-07-13T10:17:41;29.30;99.90
19966;DHT22;10144;50.874;4.762;2023-07-13T10:20:08;29.50;99.90
19966;DHT22;10144;50.874;4.762;2023-07-13T10:22:59;29.60;99.90
19966;DHT22;10144;50.874;4.762;2023-07-13T10:25:30;29.50;99.90
19966;DHT22;10144;50.874;4.762;2023-07-13T10:28:31;28.70;99.90
19966;DHT22;10144;50.874;4.762;2023-07-13T10:30:59;28.30;99.90
19966;DHT22;10144;50.874;4.762;2023-07-13T10:33:26;27.70;99.90
19966;DHT22;10144;50.874;4.762;2023-07-13T10:38:43;27.50;99.90
19966;DHT22;10144;50.874;4.762;2023-07-13T10:41:14;27.40;99.90
19966;DHT22;10144;50.874;4.762;2023-07-13T10:43:46;27.00;99.90
19966;DHT22;10144;50.874;4.762;2023-07-13T10:46:18;26.40;99.90
19966;DHT22;10144;50.874;4.762;2023-07-13T10:48:51;26.60;99.90
19966;DHT22;10144;50.874;4.762;2023-07-13T10:51:18;27.30;99.90
19966;DHT22;10144;50.874;4.762;2023-07-13T10:53:47;27.40;99.90
19966;DHT22;10144;50.874;4.762;2023-07-13T10:56:28;26.90;99.90
19966;DHT22;10144;50.874;4.762;2023-07-13T10:59:16;27.20;99.90
19966;DHT22;10144;50.874;4.762;2023-07-13T11:01:49;27.00;99.90
19966;DHT22;10144;50.874;4.762;2023-07-13T11:04:20;27.40;99.90
19966;DHT22;10144;50.874;4.762;2023-07-13T11:06:50;27.70;99.90
19966;DHT22;10144;50.874;4.762;2023-07-13T11:09:38;28.20;99.90
19966;DHT22;10144;50.874;4.762;2023-07-13T11:12:09;28.50;99.90
19966;DHT22;10144;50.874;4.762;2023-07-13T11:15:00;28.80;99.90
19966;DHT22;10144;50.874;4.762;2023-07-13T11:17:54;28.70;99.90
19966;DHT22;10144;50.874;4.762;2023-07-13T11:20:39;27.70;99.90
19966;DHT22;10144;50.874;4.762;2023-07-13T11:23:17;26.90;99.90
19966;DHT22;10144;50.874;4.762;2023-07-13T11:25:43;26.80;99.90
19966;DHT22;10144;50.874;4.762;2023-07-13T11:28:15;26.60;99.90
19966;DHT22;10144;50.874;4.762;2023-07-13T11:36:15;26.60;99.90
19966;DHT22;10144;50.874;4.762;2023-07-13T11:38:47;26.70;99.90
19966;DHT22;10144;50.874;4.762;2023-07-13T11:41:36;26.50;99.90
19966;DHT22;10144;50.874;4.762;2023-07-13T11:44:23;26.60;99.90
19966;DHT22;10144;50.874;4.762;2023-07-13T11:46:52;26.80;99.90
19966;DHT22;10144;50.874;4.762;2023-07-13T11:49:22;26.80;99.90
19966;DHT22;10144;50.874;4.762;2023-07-13T11:51:49;27.30;99.90
19966;DHT22;10144;50.874;4.762;2023-07-13T11:54:31;27.60;99.90
19966;DHT22;10144;50.874;4.762;2023-07-13T11:59:27;28.20;99.90
19966;DHT22;10144;50.874;4.762;2023-07-13T12:01:55;27.60;99.90
19966;DHT22;10144;50.874;4.762;2023-07-13T12:04:31;27.60;99.90
19966;DHT22;10144;50.874;4.762;2023-07-13T12:07:06;28.10;99.90
19966;DHT22;10144;50.874;4.762;2023-07-13T12:09:35;28.40;99.90
19966;DHT22;10144;50.874;4.762;2023-07-13T12:12:02;28.40;99.90
19966;DHT22;10144;50.874;4.762;2023-07-13T12:14:34;28.00;99.90
19966;DHT22;10144;50.874;4.762;2023-07-13T12:16:59;27.60;99.90
19966;DHT22;10144;50.874;4.762;2023-07-13T12:19:29;27.10;99.90
19966;DHT22;10144;50.874;4.762;2023-07-13T12:21:58;26.50;99.90
19966;DHT22;10144;50.874;4.762;2023-07-13T12:24:28;26.10;99.90
19966;DHT22;10144;50.874;4.762;2023-07-13T12:27:03;25.90;99.90
19966;DHT22;10144;50.874;4.762;2023-07-13T12:29:30;25.70;99.90
19966;DHT22;10144;50.874;4.762;2023-07-13T12:31:59;25.50;99.90
19966;DHT22;10144;50.874;4.762;2023-07-13T12:34:57;25.20;99.90
19966;DHT22;10144;50.874;4.762;2023-07-13T12:37:34;25.10;99.90
19966;DHT22;10144;50.874;4.762;2023-07-13T12:40:05;24.90;99.90
19966;DHT22;10144;50.874;4.762;2023-07-13T12:42:38;24.90;99.90
19966;DHT22;10144;50.874;4.762;2023-07-13T12:48:14;25.00;99.90
19966;DHT22;10144;50.874;4.762;2023-07-13T12:50:45;25.20;99.90
19966;DHT22;10144;50.874;4.762;2023-07-13T12:53:29;25.10;99.90
19966;DHT22;10144;50.874;4.762;2023-07-13T12:56:18;24.90;99.90
19966;DHT22;10144;50.874;4.762;2023-07-13T12:58:47;24.70;99.90
19966;DHT22;10144;50.874;4.762;2023-07-13T13:01:38;24.70;99.90
19966;DHT22;10144;50.874;4.762;2023-07-13T13:04:08;24.40;99.90
19966;DHT22;10144;50.874;4.762;2023-07-13T13:06:37;23.70;99.90
19966;DHT22;10144;50.874;4.762;2023-07-13T13:09:14;23.20;99.90
19966;DHT22;10144;50.874;4.762;2023-07-13T13:11:40;23.10;99.90
19966;DHT22;10144;50.874;4.762;2023-07-13T13:14:06;22.90;99.90
19966;DHT22;10144;50.874;4.762;2023-07-13T13:16:43;22.50;99.90
19966;DHT22;10144;50.874;4.762;2023-07-13T13:19:19;22.50;99.90
19966;DHT22;10144;50.874;4.762;2023-07-13T13:21:47;22.50;99.90
19966;DHT22;10144;50.874;4.762;2023-07-13T13:24:16;22.40;99.90
19966;DHT22;10144;50.874;4.762;2023-07-13T13:26:50;22.00;99.90
19966;DHT22;10144;50.874;4.762;2023-07-13T13:29:23;21.80;99.90
19966;DHT22;10144;50.874;4.762;2023-07-13T13:31:53;21.90;99.90
19966;DHT22;10144;50.874;4.762;2023-07-13T13:34:23;21.90;99.90
19966;DHT22;10144;50.874;4.762;2023-07-13T13:36:56;21.90;99.90
19966;DHT22;10144;50.874;4.762;2023-07-13T13:39:29;21.70;99.90
19966;DHT22;10144;50.874;4.762;2023-07-13T13:41:56;21.50;99.90
19966;DHT22;10144;50.874;4.762;2023-07-13T13:44:22;21.60;99.90
19966;DHT22;10144;50.874;4.762;2023-07-13T13:46:54;21.50;99.90
19966;DHT22;10144;50.874;4.762;2023-07-13T13:49:55;21.60;99.90
19966;DHT22;10144;50.874;4.762;2023-07-13T13:52:20;21.80;99.90
19966;DHT22;10144;50.874;4.762;2023-07-13T13:54:48;22.30;99.90
19966;DHT22;10144;50.874;4.762;2023-07-13T13:57:15;22.70;99.90
19966;DHT22;10144;50.874;4.762;2023-07-13T13:59:41;23.10;99.90
19966;DHT22;10144;50.874;4.762;2023-07-13T14:02:25;23.40;99.90
19966;DHT22;10144;50.874;4.762;2023-07-13T14:05:02;23.70;99.90
19966;DHT22;10144;50.874;4.762;2023-07-13T14:07:28;23.80;99.90
19966;DHT22;10144;50.874;4.762;2023-07-13T14:09:58;23.90;99.90
19966;DHT22;10144;50.874;4.762;2023-07-13T14:12:28;24.20;99.90
19966;DHT22;10144;50.874;4.762;2023-07-13T14:14:56;24.30;99.90
19966;DHT22;10144;50.874;4.762;2023-07-13T14:17:25;24.40;99.90
19966;DHT22;10144;50.874;4.762;2023-07-13T14:19:53;24.70;99.90
19966;DHT22;10144;50.874;4.762;2023-07-13T14:22:24;24.80;99.90
19966;DHT22;10144;50.874;4.762;2023-07-13T14:24:55;24.70;99.90
19966;DHT22;10144;50.874;4.762;2023-07-13T14:27:24;25.00;99.90
19966;DHT22;10144;50.874;4.762;2023-07-13T14:29:50;25.20;99.90
19966;DHT22;10144;50.874;4.762;2023-07-13T14:32:16;25.40;99.90
19966;DHT22;10144;50.874;4.762;2023-07-13T14:34:41;25.50;99.90
19966;DHT22;10144;50.874;4.762;2023-07-13T14:37:13;25.30;99.90
19966;DHT22;10144;50.874;4.762;2023-07-13T14:39:43;25.40;99.90
19966;DHT22;10144;50.874;4.762;2023-07-13T14:42:09;25.40;99.90
19966;DHT22;10144;50.874;4.762;2023-07-13T14:44:38;25.20;99.90
19966;DHT22;10144;50.874;4.762;2023-07-13T14:47:06;25.20;99.90
19966;DHT22;10144;50.874;4.762;2023-07-13T14:49:38;25.10;99.90
19966;DHT22;10144;50.874;4.762;2023-07-13T14:52:13;25.10;99.90
19966;DHT22;10144;50.874;4.762;2023-07-13T14:54:41;25.20;99.90
19966;DHT22;10144;50.874;4.762;2023-07-13T14:57:13;25.20;99.90
19966;DHT22;10144;50.874;4.762;2023-07-13T14:59:40;25.30;99.90
19966;DHT22;10144;50.874;4.762;2023-07-13T15:02:30;25.30;99.90
19966;DHT22;10144;50.874;4.762;2023-07-13T15:04:57;25.20;99.90
19966;DHT22;10144;50.874;4.762;2023-07-13T15:07:24;25.30;99.90
19966;DHT22;10144;50.874;4.762;2023-07-13T15:09:50;24.90;99.90
19966;DHT22;10144;50.874;4.762;2023-07-13T15:12:16;25.00;99.90
19966;DHT22;10144;50.874;4.762;2023-07-13T15:14:42;25.00;99.90
19966;DHT22;10144;50.874;4.762;2023-07-13T15:17:37;25.00;99.90
19966;DHT22;10144;50.874;4.762;2023-07-13T15:22:57;24.60;99.90
19966;DHT22;10144;50.874;4.762;2023-07-13T15:25:26;24.50;99.90
19966;DHT22;10144;50.874;4.762;2023-07-13T15:27:53;24.50;99.90
19966;DHT22;10144;50.874;4.762;2023-07-13T15:30:20;24.60;99.90
19966;DHT22;10144;50.874;4.762;2023-07-13T15:32:52;24.60;99.90
19966;DHT22;10144;50.874;4.762;2023-07-13T15:35:25;24.50;99.90
19966;DHT22;10144;50.874;4.762;2023-07-13T15:37:52;24.50;99.90
19966;DHT22;10144;50.874;4.762;2023-07-13T15:40:30;24.40;99.90
19966;DHT22;10144;50.874;4.762;2023-07-13T15:43:12;24.40;99.90
19966;DHT22;10144;50.874;4.762;2023-07-13T15:45:48;24.20;99.90
19966;DHT22;10144;50.874;4.762;2023-07-13T15:48:21;24.00;99.90
19966;DHT22;10144;50.874;4.762;2023-07-13T15:50:53;24.00;99.90
19966;DHT22;10144;50.874;4.762;2023-07-13T15:53:29;24.10;99.90
19966;DHT22;10144;50.874;4.762;2023-07-13T15:56:19;24.10;99.90
19966;DHT22;10144;50.874;4.762;2023-07-13T15:58:46;23.80;99.90
19966;DHT22;10144;50.874;4.762;2023-07-13T16:01:12;23.80;99.90
19966;DHT22;10144;50.874;4.762;2023-07-13T16:03:50;23.90;99.90
19966;DHT22;10144;50.874;4.762;2023-07-13T16:11:57;24.60;99.90
19966;DHT22;10144;50.874;4.762;2023-07-13T16:14:28;24.80;99.90
19966;DHT22;10144;50.874;4.762;2023-07-13T16:16:57;25.00;99.90
19966;DHT22;10144;50.874;4.762;2023-07-13T16:19:23;24.90;99.90
19966;DHT22;10144;50.874;4.762;2023-07-13T16:21:57;24.90;99.90
19966;DHT22;10144;50.874;4.762;2023-07-13T16:24:28;24.90;99.90
19966;DHT22;10144;50.874;4.762;2023-07-13T16:26:59;24.90;99.90
19966;DHT22;10144;50.874;4.762;2023-07-13T16:29:30;24.90;99.90
19966;DHT22;10144;50.874;4.762;2023-07-13T16:32:07;24.90;99.90